Portada
METAR-TAF:

METAR-TAF

Aeroports :

Northolt, Anglaterra

latitud: 51-33N, longitud: 000-25W, altitud: 38 m

Observació

L'informe es va fer fa 30 minuts, a les 22:50 UTC
Vent 8 kt del Oest/Nord-Oest
Temperatura 7°C
Humitat 87%
Pressió 1018 hPa
Visibilitat 10 km o més

METAR: EGWU 162250Z AUTO 29008KT 9999 // OVC039/// 07/05 Q1018

Hora: 23:20 (23:20 UTC)

Pronòstic

L'informe es va fer fa 3 hores i 52 minuts, a les 19:28 UTC
Pronòstic vàlid del 16 a les 21 UTC al 17 a les 15 UTC
Vent 10 kt del Oest/Nord-Oest
Visibilitat 10 km o més
Cel ennuvolat a una alçada de 3500 ft
Probabilitat 30% :
Temporalment
l' 17 a les 04 UTC al 17 a les 09 UTC
Núvols disperses a una alçada de 1400 ft
Probabilitat 30% :
Temporalment
l' 17 a les 11 UTC al 17 a les 15 UTC
Núvols disperses a una alçada de 2000 ft

TAF: EGWU 161928Z 1621/1715 30010KT 9999 BKN035 PROB30 TEMPO 1704/1709 SCT014 PROB30 TEMPO 1711/1715 SCT020

Observacions i pronòstics meteorològics de més de 4000 aeroports (METAR i TAF).

Les estacions disponibles són els punts grocs i vermells al mapa.

Posi el ratolí al punt desitjat per veure el nom de l'estació.

Feu clic per veure les observacions i els pronòstics meteorològics.

Per canviar el mapa: feu clic els botons verds amb una creu de color negre per apropar; al botó verd amb un guió per allunyar la imatge; o en les fletxes verdes per a mapes adjacents.


METAR-TAF: